sensor_id;sensor_type;location;lat;lon;timestamp;temperature;humidity
66598;DHT22;57424;53.128;6.406;2024-01-30T00:01:14;11.30;67.50
66598;DHT22;57424;53.128;6.406;2024-01-30T00:03:39;11.20;67.50
66598;DHT22;57424;53.128;6.406;2024-01-30T00:06:05;11.20;67.40
66598;DHT22;57424;53.128;6.406;2024-01-30T00:08:30;11.30;67.50
66598;DHT22;57424;53.128;6.406;2024-01-30T00:10:56;11.20;67.50
66598;DHT22;57424;53.128;6.406;2024-01-30T00:13:22;11.20;67.50
66598;DHT22;57424;53.128;6.406;2024-01-30T00:15:48;11.20;67.50
66598;DHT22;57424;53.128;6.406;2024-01-30T00:18:13;11.20;67.50
66598;DHT22;57424;53.128;6.406;2024-01-30T00:20:39;11.20;67.60
66598;DHT22;57424;53.128;6.406;2024-01-30T00:23:05;11.20;67.60
66598;DHT22;57424;53.128;6.406;2024-01-30T00:25:30;11.20;67.60
66598;DHT22;57424;53.128;6.406;2024-01-30T00:27:56;11.20;67.60
66598;DHT22;57424;53.128;6.406;2024-01-30T00:30:22;11.20;67.60
66598;DHT22;57424;53.128;6.406;2024-01-30T00:32:47;11.20;67.70
66598;DHT22;57424;53.128;6.406;2024-01-30T00:35:13;11.20;67.60
66598;DHT22;57424;53.128;6.406;2024-01-30T00:37:40;11.20;67.60
66598;DHT22;57424;53.128;6.406;2024-01-30T00:40:06;11.20;67.60
66598;DHT22;57424;53.128;6.406;2024-01-30T00:42:31;11.20;67.60
66598;DHT22;57424;53.128;6.406;2024-01-30T00:44:57;11.20;67.70
66598;DHT22;57424;53.128;6.406;2024-01-30T00:47:23;11.10;67.60
66598;DHT22;57424;53.128;6.406;2024-01-30T00:49:49;11.20;67.70
66598;DHT22;57424;53.128;6.406;2024-01-30T00:52:15;11.10;67.70
66598;DHT22;57424;53.128;6.406;2024-01-30T00:54:41;11.10;67.80
66598;DHT22;57424;53.128;6.406;2024-01-30T00:57:07;11.20;67.80
66598;DHT22;57424;53.128;6.406;2024-01-30T00:59:32;11.10;67.80
66598;DHT22;57424;53.128;6.406;2024-01-30T01:01:58;11.20;67.80
66598;DHT22;57424;53.128;6.406;2024-01-30T01:04:23;11.10;67.80
66598;DHT22;57424;53.128;6.406;2024-01-30T01:06:49;11.10;67.70
66598;DHT22;57424;53.128;6.406;2024-01-30T01:09:15;11.10;67.70
66598;DHT22;57424;53.128;6.406;2024-01-30T01:11:40;11.10;67.70
66598;DHT22;57424;53.128;6.406;2024-01-30T01:14:06;11.10;67.60
66598;DHT22;57424;53.128;6.406;2024-01-30T01:16:33;11.10;67.70
66598;DHT22;57424;53.128;6.406;2024-01-30T01:18:59;11.10;68.30
66598;DHT22;57424;53.128;6.406;2024-01-30T01:21:25;11.10;67.60
66598;DHT22;57424;53.128;6.406;2024-01-30T01:23:51;11.10;67.70
66598;DHT22;57424;53.128;6.406;2024-01-30T01:26:16;11.10;67.70
66598;DHT22;57424;53.128;6.406;2024-01-30T01:28:42;11.10;67.70
66598;DHT22;57424;53.128;6.406;2024-01-30T01:31:08;11.10;67.70
66598;DHT22;57424;53.128;6.406;2024-01-30T01:33:34;11.00;67.70
66598;DHT22;57424;53.128;6.406;2024-01-30T01:36:00;11.10;67.80
66598;DHT22;57424;53.128;6.406;2024-01-30T01:38:28;11.10;67.70
66598;DHT22;57424;53.128;6.406;2024-01-30T01:40:53;11.00;67.60
66598;DHT22;57424;53.128;6.406;2024-01-30T01:43:19;11.00;67.70
66598;DHT22;57424;53.128;6.406;2024-01-30T01:45:45;11.00;67.70
66598;DHT22;57424;53.128;6.406;2024-01-30T01:48:11;11.00;67.70
66598;DHT22;57424;53.128;6.406;2024-01-30T01:50:38;11.00;67.70
66598;DHT22;57424;53.128;6.406;2024-01-30T01:53:07;11.00;67.70
66598;DHT22;57424;53.128;6.406;2024-01-30T01:55:34;11.00;67.70
66598;DHT22;57424;53.128;6.406;2024-01-30T01:58:01;11.00;67.70
66598;DHT22;57424;53.128;6.406;2024-01-30T02:00:27;11.00;67.70
66598;DHT22;57424;53.128;6.406;2024-01-30T02:02:54;11.00;67.80
66598;DHT22;57424;53.128;6.406;2024-01-30T02:05:21;11.00;67.80
66598;DHT22;57424;53.128;6.406;2024-01-30T02:07:46;11.00;67.80
66598;DHT22;57424;53.128;6.406;2024-01-30T02:10:13;11.00;67.80
66598;DHT22;57424;53.128;6.406;2024-01-30T02:12:39;11.00;67.80
66598;DHT22;57424;53.128;6.406;2024-01-30T02:15:05;11.00;67.80
66598;DHT22;57424;53.128;6.406;2024-01-30T02:17:32;11.00;67.80
66598;DHT22;57424;53.128;6.406;2024-01-30T02:19:58;11.00;67.80
66598;DHT22;57424;53.128;6.406;2024-01-30T02:22:24;10.90;67.80
66598;DHT22;57424;53.128;6.406;2024-01-30T02:24:49;10.90;67.70
66598;DHT22;57424;53.128;6.406;2024-01-30T02:27:15;10.90;67.70
66598;DHT22;57424;53.128;6.406;2024-01-30T02:29:41;10.90;67.70
66598;DHT22;57424;53.128;6.406;2024-01-30T02:32:06;10.90;67.90
66598;DHT22;57424;53.128;6.406;2024-01-30T02:34:33;10.90;67.90
66598;DHT22;57424;53.128;6.406;2024-01-30T02:36:58;10.90;68.00
66598;DHT22;57424;53.128;6.406;2024-01-30T02:39:24;10.90;68.10
66598;DHT22;57424;53.128;6.406;2024-01-30T02:41:50;10.90;68.10
66598;DHT22;57424;53.128;6.406;2024-01-30T02:44:16;10.90;68.10
66598;DHT22;57424;53.128;6.406;2024-01-30T02:46:41;10.90;68.10
66598;DHT22;57424;53.128;6.406;2024-01-30T02:49:07;11.00;68.20
66598;DHT22;57424;53.128;6.406;2024-01-30T02:51:32;10.90;68.20
66598;DHT22;57424;53.128;6.406;2024-01-30T02:53:58;10.90;68.30
66598;DHT22;57424;53.128;6.406;2024-01-30T02:56:23;10.90;68.30
66598;DHT22;57424;53.128;6.406;2024-01-30T02:58:49;10.90;68.30
66598;DHT22;57424;53.128;6.406;2024-01-30T03:01:14;10.90;68.40
66598;DHT22;57424;53.128;6.406;2024-01-30T03:03:40;10.90;68.30
66598;DHT22;57424;53.128;6.406;2024-01-30T03:06:06;10.90;68.40
66598;DHT22;57424;53.128;6.406;2024-01-30T03:08:32;10.90;68.30
66598;DHT22;57424;53.128;6.406;2024-01-30T03:11:00;10.90;68.30
66598;DHT22;57424;53.128;6.406;2024-01-30T03:13:25;10.90;68.20
66598;DHT22;57424;53.128;6.406;2024-01-30T03:15:51;10.90;68.20
66598;DHT22;57424;53.128;6.406;2024-01-30T03:18:17;10.90;68.20
66598;DHT22;57424;53.128;6.406;2024-01-30T03:20:43;10.90;68.30
66598;DHT22;57424;53.128;6.406;2024-01-30T03:23:08;10.90;68.30
66598;DHT22;57424;53.128;6.406;2024-01-30T03:25:34;10.90;68.20
66598;DHT22;57424;53.128;6.406;2024-01-30T03:27:59;10.90;68.20
66598;DHT22;57424;53.128;6.406;2024-01-30T03:30:25;10.80;68.20
66598;DHT22;57424;53.128;6.406;2024-01-30T03:32:51;10.90;68.30
66598;DHT22;57424;53.128;6.406;2024-01-30T03:35:18;10.80;68.30
66598;DHT22;57424;53.128;6.406;2024-01-30T03:37:44;10.80;68.30
66598;DHT22;57424;53.128;6.406;2024-01-30T03:40:09;10.80;68.30
66598;DHT22;57424;53.128;6.406;2024-01-30T03:42:35;10.90;68.40
66598;DHT22;57424;53.128;6.406;2024-01-30T03:45:01;10.80;68.30
66598;DHT22;57424;53.128;6.406;2024-01-30T03:47:30;10.80;68.30
66598;DHT22;57424;53.128;6.406;2024-01-30T03:49:55;10.80;68.40
66598;DHT22;57424;53.128;6.406;2024-01-30T03:52:21;10.80;68.30
66598;DHT22;57424;53.128;6.406;2024-01-30T03:54:46;10.80;68.30
66598;DHT22;57424;53.128;6.406;2024-01-30T03:57:12;10.80;68.30
66598;DHT22;57424;53.128;6.406;2024-01-30T03:59:37;10.80;68.40
66598;DHT22;57424;53.128;6.406;2024-01-30T04:02:03;10.80;68.40
66598;DHT22;57424;53.128;6.406;2024-01-30T04:04:29;10.80;68.50
66598;DHT22;57424;53.128;6.406;2024-01-30T04:06:55;10.80;68.40
66598;DHT22;57424;53.128;6.406;2024-01-30T04:09:20;10.80;68.50
66598;DHT22;57424;53.128;6.406;2024-01-30T04:11:46;10.80;68.50
66598;DHT22;57424;53.128;6.406;2024-01-30T04:14:12;10.80;68.50
66598;DHT22;57424;53.128;6.406;2024-01-30T04:16:37;10.80;68.50
66598;DHT22;57424;53.128;6.406;2024-01-30T04:19:03;10.80;68.50
66598;DHT22;57424;53.128;6.406;2024-01-30T04:21:28;10.80;68.60
66598;DHT22;57424;53.128;6.406;2024-01-30T04:23:54;10.80;68.60
66598;DHT22;57424;53.128;6.406;2024-01-30T04:26:19;10.80;68.60
66598;DHT22;57424;53.128;6.406;2024-01-30T04:28:45;10.80;68.60
66598;DHT22;57424;53.128;6.406;2024-01-30T04:31:11;10.80;68.50
66598;DHT22;57424;53.128;6.406;2024-01-30T04:33:37;10.80;68.60
66598;DHT22;57424;53.128;6.406;2024-01-30T04:36:03;10.80;68.70
66598;DHT22;57424;53.128;6.406;2024-01-30T04:38:29;10.80;68.70
66598;DHT22;57424;53.128;6.406;2024-01-30T04:40:54;10.80;68.80
66598;DHT22;57424;53.128;6.406;2024-01-30T04:43:20;10.80;68.80
66598;DHT22;57424;53.128;6.406;2024-01-30T04:45:45;10.80;68.80
66598;DHT22;57424;53.128;6.406;2024-01-30T04:48:11;10.80;68.80
66598;DHT22;57424;53.128;6.406;2024-01-30T04:50:37;10.80;68.90
66598;DHT22;57424;53.128;6.406;2024-01-30T04:53:02;10.80;68.90
66598;DHT22;57424;53.128;6.406;2024-01-30T04:55:28;10.80;68.80
66598;DHT22;57424;53.128;6.406;2024-01-30T04:57:53;10.80;68.90
66598;DHT22;57424;53.128;6.406;2024-01-30T05:00:19;10.80;68.90
66598;DHT22;57424;53.128;6.406;2024-01-30T05:02:44;10.80;68.90
66598;DHT22;57424;53.128;6.406;2024-01-30T05:05:10;10.80;68.90
66598;DHT22;57424;53.128;6.406;2024-01-30T05:07:36;10.80;68.90
66598;DHT22;57424;53.128;6.406;2024-01-30T05:10:02;10.80;68.90
66598;DHT22;57424;53.128;6.406;2024-01-30T05:12:28;10.80;68.90
66598;DHT22;57424;53.128;6.406;2024-01-30T05:14:54;10.80;68.90
66598;DHT22;57424;53.128;6.406;2024-01-30T05:17:20;10.80;68.90
66598;DHT22;57424;53.128;6.406;2024-01-30T05:19:45;10.80;68.90
66598;DHT22;57424;53.128;6.406;2024-01-30T05:22:11;10.80;68.90
66598;DHT22;57424;53.128;6.406;2024-01-30T05:24:44;10.80;68.90
66598;DHT22;57424;53.128;6.406;2024-01-30T05:27:09;10.80;69.00
66598;DHT22;57424;53.128;6.406;2024-01-30T05:29:35;10.80;69.00
66598;DHT22;57424;53.128;6.406;2024-01-30T05:32:00;10.80;69.00
66598;DHT22;57424;53.128;6.406;2024-01-30T05:34:26;10.80;69.00
66598;DHT22;57424;53.128;6.406;2024-01-30T05:36:51;10.80;69.00
66598;DHT22;57424;53.128;6.406;2024-01-30T05:39:17;10.80;69.00
66598;DHT22;57424;53.128;6.406;2024-01-30T05:41:42;10.80;69.00
66598;DHT22;57424;53.128;6.406;2024-01-30T05:44:08;10.80;69.00
66598;DHT22;57424;53.128;6.406;2024-01-30T05:46:35;10.80;69.00
66598;DHT22;57424;53.128;6.406;2024-01-30T05:49:01;10.80;69.10
66598;DHT22;57424;53.128;6.406;2024-01-30T05:51:26;10.80;69.10
66598;DHT22;57424;53.128;6.406;2024-01-30T05:53:53;10.80;69.20
66598;DHT22;57424;53.128;6.406;2024-01-30T05:56:19;10.80;69.20
66598;DHT22;57424;53.128;6.406;2024-01-30T05:58:44;10.80;69.30
66598;DHT22;57424;53.128;6.406;2024-01-30T06:01:10;10.80;69.30
66598;DHT22;57424;53.128;6.406;2024-01-30T06:03:36;10.80;69.30
66598;DHT22;57424;53.128;6.406;2024-01-30T06:06:01;10.80;69.40
66598;DHT22;57424;53.128;6.406;2024-01-30T06:08:27;10.80;69.40
66598;DHT22;57424;53.128;6.406;2024-01-30T06:10:53;10.80;69.50
66598;DHT22;57424;53.128;6.406;2024-01-30T06:13:18;10.80;69.50
66598;DHT22;57424;53.128;6.406;2024-01-30T06:15:44;10.80;69.50
66598;DHT22;57424;53.128;6.406;2024-01-30T06:18:09;10.80;69.60
66598;DHT22;57424;53.128;6.406;2024-01-30T06:20:35;10.80;69.70
66598;DHT22;57424;53.128;6.406;2024-01-30T06:23:00;10.80;69.70
66598;DHT22;57424;53.128;6.406;2024-01-30T06:25:26;10.80;69.70
66598;DHT22;57424;53.128;6.406;2024-01-30T06:27:52;10.80;69.70
66598;DHT22;57424;53.128;6.406;2024-01-30T06:30:18;10.90;69.90
66598;DHT22;57424;53.128;6.406;2024-01-30T06:32:43;10.90;69.90
66598;DHT22;57424;53.128;6.406;2024-01-30T06:35:09;10.80;69.90
66598;DHT22;57424;53.128;6.406;2024-01-30T06:37:36;10.90;69.90
66598;DHT22;57424;53.128;6.406;2024-01-30T06:40:01;10.90;69.90
66598;DHT22;57424;53.128;6.406;2024-01-30T06:42:27;10.90;70.00
66598;DHT22;57424;53.128;6.406;2024-01-30T06:44:53;10.90;69.90
66598;DHT22;57424;53.128;6.406;2024-01-30T06:47:19;10.90;70.00
66598;DHT22;57424;53.128;6.406;2024-01-30T06:49:44;10.90;70.00
66598;DHT22;57424;53.128;6.406;2024-01-30T06:52:10;10.90;70.00
66598;DHT22;57424;53.128;6.406;2024-01-30T06:54:36;10.90;70.00
66598;DHT22;57424;53.128;6.406;2024-01-30T06:57:02;10.90;70.00
66598;DHT22;57424;53.128;6.406;2024-01-30T06:59:28;10.90;69.90
66598;DHT22;57424;53.128;6.406;2024-01-30T07:01:53;11.00;70.00
66598;DHT22;57424;53.128;6.406;2024-01-30T07:04:19;11.00;70.00
66598;DHT22;57424;53.128;6.406;2024-01-30T07:06:45;11.00;70.00
66598;DHT22;57424;53.128;6.406;2024-01-30T07:09:10;11.00;70.10
66598;DHT22;57424;53.128;6.406;2024-01-30T07:11:36;11.00;70.10
66598;DHT22;57424;53.128;6.406;2024-01-30T07:14:01;11.00;70.10
66598;DHT22;57424;53.128;6.406;2024-01-30T07:16:30;11.00;70.10
66598;DHT22;57424;53.128;6.406;2024-01-30T07:18:55;11.00;69.90
66598;DHT22;57424;53.128;6.406;2024-01-30T07:21:22;11.00;69.90
66598;DHT22;57424;53.128;6.406;2024-01-30T07:23:53;11.00;70.00
66598;DHT22;57424;53.128;6.406;2024-01-30T07:26:19;11.10;70.70
66598;DHT22;57424;53.128;6.406;2024-01-30T07:28:44;11.10;70.10
66598;DHT22;57424;53.128;6.406;2024-01-30T07:31:10;11.10;70.10
66598;DHT22;57424;53.128;6.406;2024-01-30T07:33:35;11.10;70.10
66598;DHT22;57424;53.128;6.406;2024-01-30T07:36:01;11.10;70.10
66598;DHT22;57424;53.128;6.406;2024-01-30T07:38:26;11.10;70.10
66598;DHT22;57424;53.128;6.406;2024-01-30T07:40:52;11.10;70.20
66598;DHT22;57424;53.128;6.406;2024-01-30T07:43:18;11.10;70.10
66598;DHT22;57424;53.128;6.406;2024-01-30T07:45:45;11.10;70.20
66598;DHT22;57424;53.128;6.406;2024-01-30T07:48:11;11.10;70.10
66598;DHT22;57424;53.128;6.406;2024-01-30T07:50:36;11.20;70.20
66598;DHT22;57424;53.128;6.406;2024-01-30T07:53:02;11.20;70.30
66598;DHT22;57424;53.128;6.406;2024-01-30T07:55:28;11.20;70.30
66598;DHT22;57424;53.128;6.406;2024-01-30T07:57:54;11.20;70.20
66598;DHT22;57424;53.128;6.406;2024-01-30T08:00:21;11.20;70.30
66598;DHT22;57424;53.128;6.406;2024-01-30T08:02:55;11.20;70.30
66598;DHT22;57424;53.128;6.406;2024-01-30T08:05:22;11.20;70.30
66598;DHT22;57424;53.128;6.406;2024-01-30T08:07:50;11.20;70.30
66598;DHT22;57424;53.128;6.406;2024-01-30T08:10:16;11.20;70.40
66598;DHT22;57424;53.128;6.406;2024-01-30T08:12:43;11.20;70.40
66598;DHT22;57424;53.128;6.406;2024-01-30T08:15:09;11.30;70.40
66598;DHT22;57424;53.128;6.406;2024-01-30T08:17:35;11.30;70.40
66598;DHT22;57424;53.128;6.406;2024-01-30T08:20:00;11.30;70.30
66598;DHT22;57424;53.128;6.406;2024-01-30T08:22:26;11.30;70.40
66598;DHT22;57424;53.128;6.406;2024-01-30T08:24:51;11.30;70.40
66598;DHT22;57424;53.128;6.406;2024-01-30T08:27:17;11.30;70.40
66598;DHT22;57424;53.128;6.406;2024-01-30T08:29:43;11.40;70.40
66598;DHT22;57424;53.128;6.406;2024-01-30T08:32:08;11.40;70.40
66598;DHT22;57424;53.128;6.406;2024-01-30T08:34:34;11.40;70.40
66598;DHT22;57424;53.128;6.406;2024-01-30T08:37:00;11.40;70.80
66598;DHT22;57424;53.128;6.406;2024-01-30T08:39:25;11.40;70.50
66598;DHT22;57424;53.128;6.406;2024-01-30T08:41:51;11.40;70.50
66598;DHT22;57424;53.128;6.406;2024-01-30T08:44:17;11.40;70.40
66598;DHT22;57424;53.128;6.406;2024-01-30T08:46:44;11.40;70.40
66598;DHT22;57424;53.128;6.406;2024-01-30T08:49:10;11.50;70.50
66598;DHT22;57424;53.128;6.406;2024-01-30T08:51:38;11.50;70.50
66598;DHT22;57424;53.128;6.406;2024-01-30T08:54:04;11.50;70.50
66598;DHT22;57424;53.128;6.406;2024-01-30T08:56:30;11.50;70.60
66598;DHT22;57424;53.128;6.406;2024-01-30T08:58:55;11.50;70.50
66598;DHT22;57424;53.128;6.406;2024-01-30T09:01:21;11.60;70.60
66598;DHT22;57424;53.128;6.406;2024-01-30T09:03:46;11.60;70.60
66598;DHT22;57424;53.128;6.406;2024-01-30T09:06:12;11.60;70.50
66598;DHT22;57424;53.128;6.406;2024-01-30T09:08:38;11.60;70.50
66598;DHT22;57424;53.128;6.406;2024-01-30T09:11:13;11.60;70.50
66598;DHT22;57424;53.128;6.406;2024-01-30T09:13:39;11.70;70.60
66598;DHT22;57424;53.128;6.406;2024-01-30T09:16:05;11.70;70.50
66598;DHT22;57424;53.128;6.406;2024-01-30T09:18:31;11.70;70.60
66598;DHT22;57424;53.128;6.406;2024-01-30T09:20:57;11.70;70.50
66598;DHT22;57424;53.128;6.406;2024-01-30T09:23:22;11.70;70.50
66598;DHT22;57424;53.128;6.406;2024-01-30T09:25:48;11.70;70.50
66598;DHT22;57424;53.128;6.406;2024-01-30T09:28:14;11.70;70.50
66598;DHT22;57424;53.128;6.406;2024-01-30T09:30:39;11.80;70.70
66598;DHT22;57424;53.128;6.406;2024-01-30T09:33:06;11.80;70.70
66598;DHT22;57424;53.128;6.406;2024-01-30T09:35:31;11.80;71.40
66598;DHT22;57424;53.128;6.406;2024-01-30T09:37:57;11.80;70.80
66598;DHT22;57424;53.128;6.406;2024-01-30T09:40:24;11.90;70.80
66598;DHT22;57424;53.128;6.406;2024-01-30T09:42:52;11.90;70.80
66598;DHT22;57424;53.128;6.406;2024-01-30T09:45:19;11.90;70.80
66598;DHT22;57424;53.128;6.406;2024-01-30T09:47:46;11.90;70.70
66598;DHT22;57424;53.128;6.406;2024-01-30T09:50:15;11.90;70.70
66598;DHT22;57424;53.128;6.406;2024-01-30T09:52:45;11.90;70.80
66598;DHT22;57424;53.128;6.406;2024-01-30T09:55:11;12.00;70.80
66598;DHT22;57424;53.128;6.406;2024-01-30T09:57:37;12.00;70.80
66598;DHT22;57424;53.128;6.406;2024-01-30T10:00:03;12.00;70.90
66598;DHT22;57424;53.128;6.406;2024-01-30T10:02:31;12.00;70.80
66598;DHT22;57424;53.128;6.406;2024-01-30T10:04:59;12.00;70.90
66598;DHT22;57424;53.128;6.406;2024-01-30T10:07:25;12.00;70.90
66598;DHT22;57424;53.128;6.406;2024-01-30T10:09:51;12.10;70.90
66598;DHT22;57424;53.128;6.406;2024-01-30T10:12:16;12.10;70.90
66598;DHT22;57424;53.128;6.406;2024-01-30T10:14:43;12.10;70.90
66598;DHT22;57424;53.128;6.406;2024-01-30T10:17:09;12.10;70.90
66598;DHT22;57424;53.128;6.406;2024-01-30T10:19:36;12.10;70.90
66598;DHT22;57424;53.128;6.406;2024-01-30T10:22:02;12.10;70.90
66598;DHT22;57424;53.128;6.406;2024-01-30T10:24:28;12.10;70.90
66598;DHT22;57424;53.128;6.406;2024-01-30T10:26:55;12.10;70.80
66598;DHT22;57424;53.128;6.406;2024-01-30T10:29:20;12.20;70.90
66598;DHT22;57424;53.128;6.406;2024-01-30T10:32:03;12.20;70.90
66598;DHT22;57424;53.128;6.406;2024-01-30T10:34:30;12.20;70.90
66598;DHT22;57424;53.128;6.406;2024-01-30T10:37:08;12.20;70.90
66598;DHT22;57424;53.128;6.406;2024-01-30T10:39:39;12.20;70.90
66598;DHT22;57424;53.128;6.406;2024-01-30T10:42:07;12.20;70.90
66598;DHT22;57424;53.128;6.406;2024-01-30T10:47:28;12.20;71.00
66598;DHT22;57424;53.128;6.406;2024-01-30T10:49:55;12.20;71.00
66598;DHT22;57424;53.128;6.406;2024-01-30T10:52:21;12.20;71.00
66598;DHT22;57424;53.128;6.406;2024-01-30T10:54:49;12.20;71.10
66598;DHT22;57424;53.128;6.406;2024-01-30T10:57:15;12.20;71.10
66598;DHT22;57424;53.128;6.406;2024-01-30T10:59:42;12.20;71.10
66598;DHT22;57424;53.128;6.406;2024-01-30T11:02:08;12.20;71.70
66598;DHT22;57424;53.128;6.406;2024-01-30T11:04:40;12.20;71.20
66598;DHT22;57424;53.128;6.406;2024-01-30T11:07:27;12.20;71.20
66598;DHT22;57424;53.128;6.406;2024-01-30T11:09:54;12.30;71.30
66598;DHT22;57424;53.128;6.406;2024-01-30T11:12:28;12.30;71.30
66598;DHT22;57424;53.128;6.406;2024-01-30T11:15:11;12.30;71.20
66598;DHT22;57424;53.128;6.406;2024-01-30T11:17:44;12.30;71.30
66598;DHT22;57424;53.128;6.406;2024-01-30T11:20:11;12.30;71.30
66598;DHT22;57424;53.128;6.406;2024-01-30T11:22:37;12.30;71.30
66598;DHT22;57424;53.128;6.406;2024-01-30T11:25:03;12.30;71.30
66598;DHT22;57424;53.128;6.406;2024-01-30T11:27:30;12.30;71.30
66598;DHT22;57424;53.128;6.406;2024-01-30T11:30:02;12.30;71.30
66598;DHT22;57424;53.128;6.406;2024-01-30T11:32:28;12.30;71.40
66598;DHT22;57424;53.128;6.406;2024-01-30T11:34:54;12.30;71.40
66598;DHT22;57424;53.128;6.406;2024-01-30T11:37:21;12.30;71.40
66598;DHT22;57424;53.128;6.406;2024-01-30T11:39:51;12.40;71.50
66598;DHT22;57424;53.128;6.406;2024-01-30T11:42:16;12.30;71.40
66598;DHT22;57424;53.128;6.406;2024-01-30T11:44:47;12.40;71.50
66598;DHT22;57424;53.128;6.406;2024-01-30T11:47:13;12.40;71.50
66598;DHT22;57424;53.128;6.406;2024-01-30T11:49:39;12.40;72.00
66598;DHT22;57424;53.128;6.406;2024-01-30T11:52:05;12.40;71.30
66598;DHT22;57424;53.128;6.406;2024-01-30T11:54:31;12.40;71.30
66598;DHT22;57424;53.128;6.406;2024-01-30T11:56:57;12.40;71.30
66598;DHT22;57424;53.128;6.406;2024-01-30T11:59:22;12.40;71.30
66598;DHT22;57424;53.128;6.406;2024-01-30T12:01:48;12.40;71.30
66598;DHT22;57424;53.128;6.406;2024-01-30T12:04:14;12.50;71.30
66598;DHT22;57424;53.128;6.406;2024-01-30T12:06:40;12.50;71.30
66598;DHT22;57424;53.128;6.406;2024-01-30T12:09:06;12.50;71.30
66598;DHT22;57424;53.128;6.406;2024-01-30T12:11:47;12.50;71.20
66598;DHT22;57424;53.128;6.406;2024-01-30T12:14:13;12.50;71.20
66598;DHT22;57424;53.128;6.406;2024-01-30T12:16:39;12.50;71.10
66598;DHT22;57424;53.128;6.406;2024-01-30T12:19:05;12.50;71.10
66598;DHT22;57424;53.128;6.406;2024-01-30T12:21:30;12.50;71.10
66598;DHT22;57424;53.128;6.406;2024-01-30T12:24:00;12.50;71.10
66598;DHT22;57424;53.128;6.406;2024-01-30T12:26:26;12.50;71.10
66598;DHT22;57424;53.128;6.406;2024-01-30T12:28:55;12.50;71.10
66598;DHT22;57424;53.128;6.406;2024-01-30T12:31:27;12.60;71.10
66598;DHT22;57424;53.128;6.406;2024-01-30T12:33:54;12.50;70.90
66598;DHT22;57424;53.128;6.406;2024-01-30T12:36:21;12.50;70.90
66598;DHT22;57424;53.128;6.406;2024-01-30T12:38:47;12.60;71.00
66598;DHT22;57424;53.128;6.406;2024-01-30T12:41:12;12.60;70.90
66598;DHT22;57424;53.128;6.406;2024-01-30T12:43:38;12.50;70.90
66598;DHT22;57424;53.128;6.406;2024-01-30T12:46:04;12.50;70.80
66598;DHT22;57424;53.128;6.406;2024-01-30T12:48:30;12.60;71.50
66598;DHT22;57424;53.128;6.406;2024-01-30T12:50:56;12.60;70.80
66598;DHT22;57424;53.128;6.406;2024-01-30T12:53:22;12.60;70.80
66598;DHT22;57424;53.128;6.406;2024-01-30T12:55:47;12.60;70.70
66598;DHT22;57424;53.128;6.406;2024-01-30T12:58:15;12.60;70.70
66598;DHT22;57424;53.128;6.406;2024-01-30T13:00:41;12.60;70.80
66598;DHT22;57424;53.128;6.406;2024-01-30T13:03:08;12.60;70.80
66598;DHT22;57424;53.128;6.406;2024-01-30T13:05:33;12.70;70.80
66598;DHT22;57424;53.128;6.406;2024-01-30T13:07:59;12.70;70.80
66598;DHT22;57424;53.128;6.406;2024-01-30T13:10:24;12.70;70.70
66598;DHT22;57424;53.128;6.406;2024-01-30T13:12:51;12.70;70.60
66598;DHT22;57424;53.128;6.406;2024-01-30T13:15:16;12.70;70.60
66598;DHT22;57424;53.128;6.406;2024-01-30T13:17:42;12.80;70.70
66598;DHT22;57424;53.128;6.406;2024-01-30T13:20:09;12.80;70.60
66598;DHT22;57424;53.128;6.406;2024-01-30T13:22:35;12.80;70.60
66598;DHT22;57424;53.128;6.406;2024-01-30T13:25:00;12.80;70.50
66598;DHT22;57424;53.128;6.406;2024-01-30T13:27:26;12.80;70.50
66598;DHT22;57424;53.128;6.406;2024-01-30T13:29:52;12.80;70.40
66598;DHT22;57424;53.128;6.406;2024-01-30T13:32:17;12.80;70.40
66598;DHT22;57424;53.128;6.406;2024-01-30T13:34:43;12.80;70.40
66598;DHT22;57424;53.128;6.406;2024-01-30T13:37:09;12.80;70.40
66598;DHT22;57424;53.128;6.406;2024-01-30T13:39:34;12.80;70.30
66598;DHT22;57424;53.128;6.406;2024-01-30T13:42:00;12.80;70.30
66598;DHT22;57424;53.128;6.406;2024-01-30T13:44:25;12.80;70.30
66598;DHT22;57424;53.128;6.406;2024-01-30T13:46:51;12.80;70.30
66598;DHT22;57424;53.128;6.406;2024-01-30T13:49:17;12.80;70.30
66598;DHT22;57424;53.128;6.406;2024-01-30T13:51:42;12.80;70.30
66598;DHT22;57424;53.128;6.406;2024-01-30T13:54:08;12.80;70.20
66598;DHT22;57424;53.128;6.406;2024-01-30T13:56:34;12.80;70.20
66598;DHT22;57424;53.128;6.406;2024-01-30T13:58:59;12.80;70.10
66598;DHT22;57424;53.128;6.406;2024-01-30T14:01:26;12.80;70.10
66598;DHT22;57424;53.128;6.406;2024-01-30T14:03:52;12.80;70.20
66598;DHT22;57424;53.128;6.406;2024-01-30T14:06:18;12.80;70.20
66598;DHT22;57424;53.128;6.406;2024-01-30T14:08:43;12.80;70.10
66598;DHT22;57424;53.128;6.406;2024-01-30T14:11:09;12.80;70.10
66598;DHT22;57424;53.128;6.406;2024-01-30T14:13:35;12.80;70.20
66598;DHT22;57424;53.128;6.406;2024-01-30T14:16:00;12.80;70.10
66598;DHT22;57424;53.128;6.406;2024-01-30T14:18:26;12.80;70.10
66598;DHT22;57424;53.128;6.406;2024-01-30T14:20:52;12.80;70.10
66598;DHT22;57424;53.128;6.406;2024-01-30T14:23:18;12.80;70.10
66598;DHT22;57424;53.128;6.406;2024-01-30T14:25:44;12.80;70.20
66598;DHT22;57424;53.128;6.406;2024-01-30T14:28:10;12.80;70.20
66598;DHT22;57424;53.128;6.406;2024-01-30T14:30:35;12.80;70.20
66598;DHT22;57424;53.128;6.406;2024-01-30T14:33:01;12.80;70.20
66598;DHT22;57424;53.128;6.406;2024-01-30T14:35:27;12.80;70.20
66598;DHT22;57424;53.128;6.406;2024-01-30T14:37:52;12.80;70.20
66598;DHT22;57424;53.128;6.406;2024-01-30T14:40:18;12.80;70.20
66598;DHT22;57424;53.128;6.406;2024-01-30T14:42:44;12.80;70.20
66598;DHT22;57424;53.128;6.406;2024-01-30T14:45:10;12.70;70.10
66598;DHT22;57424;53.128;6.406;2024-01-30T14:47:37;12.80;70.20
66598;DHT22;57424;53.128;6.406;2024-01-30T14:50:03;12.70;70.20
66598;DHT22;57424;53.128;6.406;2024-01-30T14:52:30;12.70;70.20
66598;DHT22;57424;53.128;6.406;2024-01-30T14:54:57;12.70;70.20
66598;DHT22;57424;53.128;6.406;2024-01-30T14:57:23;12.70;70.20
66598;DHT22;57424;53.128;6.406;2024-01-30T14:59:49;12.70;70.20
66598;DHT22;57424;53.128;6.406;2024-01-30T15:02:15;12.70;70.20
66598;DHT22;57424;53.128;6.406;2024-01-30T15:04:40;12.70;70.20
66598;DHT22;57424;53.128;6.406;2024-01-30T15:07:06;12.70;70.20
66598;DHT22;57424;53.128;6.406;2024-01-30T15:09:32;12.70;70.20
66598;DHT22;57424;53.128;6.406;2024-01-30T15:11:57;12.70;70.20
66598;DHT22;57424;53.128;6.406;2024-01-30T15:14:23;12.70;70.30
66598;DHT22;57424;53.128;6.406;2024-01-30T15:16:49;12.70;70.30
66598;DHT22;57424;53.128;6.406;2024-01-30T15:19:15;12.60;70.20
66598;DHT22;57424;53.128;6.406;2024-01-30T15:21:40;12.60;70.20
66598;DHT22;57424;53.128;6.406;2024-01-30T15:24:06;12.60;70.30
66598;DHT22;57424;53.128;6.406;2024-01-30T15:26:32;12.60;70.30